To NAV CANADA Home Page Login to a new session Search on AWWS site Feedback and Comments Disclaimer Vers la page française équivalente Tips FAQ What's new on the site To the Forecasts and Observations / NOTAM section To "File a Flight Plan" website Publications and other links Update of the User's profile FIC Telephone Numbers My Weather Data Folder Route Weather Data Regional Weather Data Local Weather Data To the Forecasts and Observations / NOTAM section
Request Generated 04/25/2014 at 02:23:56 UTC . Weather information available at that time is displayed.

METAR/TAF

EUREKA/NU    

METAR CWEU 250200Z 05003KT 15SM SKC M23/M28 A3052 RMK SLP337=
METAR CWEU 250100Z 06003KT 15SM SKC M22/M28 A3051 RMK SLP334=
METAR CWEU 250000Z 33003KT 15SM SKC M22/M28 A3050 RMK SLP331=

*** REMARK        : Forecast period has ended; this was the last TAF issued
*** REMARQUE : La période de prévision est échue; ceci était le dernier TAF qui a été émis
TAF CYEU 242338Z 2500/2502 ADVISORY OFFSITE VRB03KT P6SM SKC
RMK NXT FCST WILL BE ISSUED AT 251045Z=
Your time UTC time
Weather data provided by Environment Canada and NAV CANADA